Tanja Jacob — A8YR7 — position and weather

sailwx.info

Track history (hours):
 
Tides and Currents Weather Stations Pressure Air Temp Water Temp Dewpoint Dewpoint Depression Visibility Wind Speed Wind Dir Waves Ship Positions

Tanja Jacob

Last reported at 2014-Nov-04 19:33 UTC. Time now 2014-Nov-28 20:33 UTC.
Position N 29°41' W 119°21'.
Warning: this ship's position is 24 days out of date.

Length 227 m; draft 8.2 m.

Type: Ship. MMSI: 636092217.

Date/timePositionNaut miles runAvg speedWind from/ knotsBaromVisibWave heightAir tempDewpointWater temp
2014-Nov-04 19:33N 29°41' W 119°21'1813.1
2014-Nov-04 18:10N 29°57' W 119°31'813.2
2014-Nov-04 17:33N 30°04' W 119°35'1313.3
2014-Nov-04 16:33N 30°16' W 119°42'15913.1
2014-Nov-04 04:26N 32°35' W 121°14'7713.0
2014-Nov-03 22:29N 33°42' W 121°60'18812.5
2014-Nov-03 07:26N 36°37' W 123°21'2513.5
2014-Nov-03 05:33N 37°03' W 123°21'1913.2
2014-Nov-03 04:06N 37°22' W 123°21'712.5
2014-Nov-03 03:33N 37°28' W 123°18'1312.6
2014-Nov-03 02:34N 37°34' W 123°04'1313.1
2014-Nov-03 01:34N 37°41' W 122°50'1212.1
2014-Nov-03 00:34N 37°46' W 122°36'1111.3
2014-Nov-02 23:33N 37°48' W 122°22'2 2.4
2014-Nov-02 22:33N 37°46' W 122°21'0 0.1
2014-Nov-02 21:33N 37°46' W 122°21'0 0.1
2014-Nov-02 20:32N 37°46' W 122°21'0 0.0
2014-Nov-02 19:32N 37°46' W 122°21'0 0.0
2014-Nov-02 18:34N 37°46' W 122°21'1010.1
2014-Nov-02 17:33N 37°55' W 122°25'1 0.7
2014-Nov-02 16:32N 37°55' W 122°25'0 0.0
2014-Nov-02 15:32N 37°55' W 122°25'0 0.0
2014-Nov-02 14:32N 37°55' W 122°25'0 0.0
2014-Nov-02 13:31N 37°55' W 122°25'0 0.0
2014-Nov-02 12:31N 37°55' W 122°25'0 0.0
2014-Nov-02 11:33N 37°55' W 122°25'0 0.0
2014-Nov-02 10:33N 37°55' W 122°25'0 0.0
2014-Nov-02 09:32N 37°55' W 122°25'0 0.0
2014-Nov-02 08:29N 37°55' W 122°25'0 0.0
2014-Nov-02 07:31N 37°55' W 122°25'0 0.0
2014-Nov-02 06:31N 37°55' W 122°25'0 0.0
2014-Nov-02 05:31N 37°55' W 122°25'0 0.0
2014-Nov-02 04:30N 37°55' W 122°25'0 0.0
2014-Nov-02 03:33N 37°55' W 122°25'0 0.0
2014-Nov-02 02:32N 37°55' W 122°25'0 0.0
2014-Nov-02 01:32N 37°55' W 122°25'0 0.0
2014-Nov-02 00:31N 37°55' W 122°25'0 0.0
2014-Nov-01 23:31N 37°55' W 122°25'0 0.0
2014-Nov-01 22:31N 37°55' W 122°25'0 0.0
2014-Nov-01 21:30N 37°55' W 122°25'0 0.0
2014-Nov-01 20:30N 37°55' W 122°25'0 0.0
2014-Nov-01 19:29N 37°55' W 122°25'0 0.0
2014-Nov-01 18:29N 37°55' W 122°25'0 0.0
2014-Nov-01 17:31N 37°55' W 122°25'0 0.0
2014-Nov-01 16:31N 37°55' W 122°25'0 0.0
2014-Nov-01 15:31N 37°55' W 122°25'0 0.0
2014-Nov-01 14:33N 37°55' W 122°25'0 0.0
2014-Nov-01 13:33N 37°55' W 122°25'0 0.0
2014-Nov-01 12:32N 37°55' W 122°25'0 0.0
2014-Nov-01 11:32N 37°55' W 122°25'0 0.0
2014-Nov-01 10:31N 37°55' W 122°25'0 0.0
2014-Nov-01 09:31N 37°55' W 122°25'0 0.0
2014-Nov-01 08:31N 37°55' W 122°25'0 0.0
2014-Nov-01 07:30N 37°55' W 122°25'0 0.0
2014-Nov-01 06:33N 37°55' W 122°25'0 0.0
2014-Nov-01 05:32N 37°55' W 122°25'0 0.0
2014-Nov-01 04:32N 37°55' W 122°25'0 0.0
2014-Nov-01 03:31N 37°55' W 122°25'0 0.0
2014-Nov-01 02:31N 37°55' W 122°25'0 0.0
2014-Nov-01 01:31N 37°55' W 122°25'0 0.0
2014-Nov-01 00:33N 37°55' W 122°25'0 0.0
2014-Oct-31 23:33N 37°55' W 122°25'0 0.0
2014-Oct-31 22:32N 37°55' W 122°25'0 0.0
2014-Oct-31 21:32N 37°55' W 122°25'0 0.0
2014-Oct-31 20:31N 37°55' W 122°25'0 0.0
2014-Oct-31 19:31N 37°55' W 122°25'0 0.0
2014-Oct-31 18:31N 37°55' W 122°25'0 0.0
2014-Oct-31 17:33N 37°55' W 122°25'0 0.0
2014-Oct-31 16:33N 37°55' W 122°25'0 0.0
2014-Oct-31 15:32N 37°55' W 122°25'0 0.0
2014-Oct-31 14:32N 37°55' W 122°25'0 0.0
2014-Oct-31 13:31N 37°55' W 122°25'0 0.3
2014-Oct-31 12:33N 37°55' W 122°25'8 8.2
2014-Oct-31 11:33N 37°47' W 122°22'2 1.9
2014-Oct-31 10:31N 37°46' W 122°21'0 0.0
2014-Oct-31 09:33N 37°46' W 122°21'0 0.1
2014-Oct-31 08:33N 37°46' W 122°21'0 0.1
2014-Oct-31 07:32N 37°46' W 122°21'0 0.0
2014-Oct-31 06:32N 37°46' W 122°21'0 0.0
2014-Oct-31 05:31N 37°46' W 122°21'0 0.0
2014-Oct-31 04:31N 37°46' W 122°21'0 0.0
2014-Oct-31 03:31N 37°46' W 122°21'0 0.0
2014-Oct-31 02:33N 37°46' W 122°21'0 0.1
2014-Oct-31 01:33N 37°46' W 122°21'0 0.2
2014-Oct-31 00:32N 37°46' W 122°21'0 0.0
2014-Oct-30 23:32N 37°45' W 122°21'0 0.0
2014-Oct-30 22:32N 37°45' W 122°21'0 0.0
2014-Oct-30 21:31N 37°45' W 122°21'0 0.1
2014-Oct-30 20:31N 37°46' W 122°21'0 0.2
2014-Oct-30 19:31N 37°46' W 122°21'0 0.0
2014-Oct-30 18:30N 37°46' W 122°21'0 0.0
2014-Oct-30 17:33N 37°46' W 122°21'0 0.0
2014-Oct-30 16:32N 37°46' W 122°21'0 0.0
2014-Oct-30 15:32N 37°46' W 122°21'0 0.2
2014-Oct-30 14:31N 37°46' W 122°21'0 0.2
2014-Oct-30 13:31N 37°46' W 122°21'0 0.0
2014-Oct-30 12:28N 37°46' W 122°21'0 0.0
2014-Oct-30 11:33N 37°46' W 122°21'0 0.0
2014-Oct-30 10:33N 37°46' W 122°21'0 0.0
2014-Oct-30 09:32N 37°46' W 122°21'0 0.1
2014-Oct-30 08:32N 37°46' W 122°21'0 0.1
2014-Oct-30 07:31N 37°46' W 122°21'0 0.2
2014-Oct-30 06:28N 37°46' W 122°21'0 0.0
2014-Oct-30 05:31N 37°46' W 122°21'0 0.0
2014-Oct-30 04:33N 37°46' W 122°21'0 0.0
2014-Oct-30 03:21N 37°46' W 122°21'0 0.0
2014-Oct-30 02:32N 37°46' W 122°21'0 0.1
2014-Oct-30 01:32N 37°46' W 122°21'0 0.2
2014-Oct-30 00:31N 37°46' W 122°21'0 0.1
2014-Oct-29 23:31N 37°45' W 122°21'0 0.0
2014-Oct-29 22:31N 37°45' W 122°21'0 0.1
2014-Oct-29 21:33N 37°46' W 122°21'0 0.0
2014-Oct-29 20:33N 37°46' W 122°21'0 0.0
2014-Oct-29 19:32N 37°45' W 122°21'0 0.1
2014-Oct-29 18:32N 37°46' W 122°21'0 0.2
2014-Oct-29 17:28N 37°46' W 122°21'0 0.0
2014-Oct-29 16:31N 37°46' W 122°21'0 0.0
2014-Oct-29 15:33N 37°46' W 122°21'0 0.0
2014-Oct-29 14:33N 37°46' W 122°21'0 0.1
2014-Oct-29 13:30N 37°46' W 122°21'0 0.2
2014-Oct-29 12:32N 37°46' W 122°21'0 0.0
2014-Oct-29 11:32N 37°46' W 122°21'0 0.0
2014-Oct-29 10:31N 37°46' W 122°21'0 0.0
2014-Oct-29 09:31N 37°46' W 122°21'0 0.1
2014-Oct-29 08:34N 37°46' W 122°21'0 0.0
2014-Oct-29 07:33N 37°46' W 122°21'0 0.1
2014-Oct-29 06:33N 37°46' W 122°21'0 0.2
2014-Oct-29 05:29N 37°46' W 122°21'0 0.0
2014-Oct-29 04:32N 37°46' W 122°21'0 0.0
2014-Oct-29 03:31N 37°46' W 122°21'0 0.0
2014-Oct-29 02:31N 37°46' W 122°21'0 0.0
2014-Oct-29 01:33N 37°46' W 122°21'0 0.0
2014-Oct-29 00:33N 37°46' W 122°21'0 0.0
2014-Oct-28 23:33N 37°46' W 122°21'0 0.2
2014-Oct-28 22:32N 37°46' W 122°21'0 0.0
2014-Oct-28 21:32N 37°46' W 122°21'0 0.0
2014-Oct-28 20:31N 37°46' W 122°21'0 0.0
2014-Oct-28 19:31N 37°46' W 122°21'0 0.0
2014-Oct-28 18:33N 37°45' W 122°21'0 0.0
2014-Oct-28 17:33N 37°46' W 122°21'0 0.2
2014-Oct-28 16:33N 37°46' W 122°21'0 0.0
2014-Oct-28 15:29N 37°46' W 122°21'0 0.0
2014-Oct-28 14:32N 37°46' W 122°21'0 0.0
2014-Oct-28 13:31N 37°46' W 122°21'3 2.9
2014-Oct-28 12:33N 37°48' W 122°23'10 9.7
2014-Oct-28 11:34N 37°47' W 122°35'9 9.2
2014-Oct-28 10:33N 37°42' W 122°45'1110.9
2014-Oct-28 09:34N 37°36' W 122°56'1312.5
2014-Oct-28 08:33N 37°29' W 123°09'1312.4
2014-Oct-28 07:31N 37°22' W 123°23'1010.3
2014-Oct-28 06:33N 37°14' W 123°30'1110.6
2014-Oct-28 05:33N 37°03' W 123°29'1111.0
2014-Oct-28 04:33N 36°52' W 123°28'1111.5
2014-Oct-28 03:33N 36°41' W 123°26'2512.1
2014-Oct-28 01:27N 36°15' W 123°23'1111.9
2014-Oct-28 00:33N 36°05' W 123°22'1211.7
2014-Oct-27 23:33N 35°53' W 123°20'1211.4
2014-Oct-27 22:33N 35°42' W 123°18'1111.5
2014-Oct-27 21:33N 35°31' W 123°13'1211.7
2014-Oct-27 20:33N 35°21' W 123°07'1111.4
2014-Oct-27 19:33N 35°10' W 123°01'1111.1
2014-Oct-27 18:33N 35°00' W 122°55'1211.2
2014-Oct-27 17:29N 34°49' W 122°49'7510.5
2014-Oct-27 10:23N 33°42' W 122°09'9 9.7
2014-Oct-27 09:28N 33°34' W 122°05'9 9.4
2014-Oct-27 08:31N 33°26' W 121°60'18110.1
2014-Oct-26 14:32N 30°43' W 120°27'8011.5
2014-Oct-26 07:32N 29°31' W 119°46'  
Track history (hours):
 
Tides and Currents Weather Stations Pressure Air Temp Water Temp Dewpoint Dewpoint Depression Visibility Wind Speed Wind Dir Waves Ship Positions

Tanja Jacob

Last reported at 2014-Nov-04 19:33 UTC. Time now 2014-Nov-28 20:33 UTC.
Position N 29°41' W 119°21'.
Warning: this ship's position is 24 days out of date.

Length 227 m; draft 8.2 m.

Type: Ship. MMSI: 636092217.

Date/timePositionNaut miles runAvg speedWind from/ knotsBaromVisibWave heightAir tempDewpointWater temp
2014-Nov-04 19:33N 29°41' W 119°21'1813.1
2014-Nov-04 18:10N 29°57' W 119°31'813.2
2014-Nov-04 17:33N 30°04' W 119°35'1313.3
2014-Nov-04 16:33N 30°16' W 119°42'15913.1
2014-Nov-04 04:26N 32°35' W 121°14'7713.0
2014-Nov-03 22:29N 33°42' W 121°60'18812.5
2014-Nov-03 07:26N 36°37' W 123°21'2513.5
2014-Nov-03 05:33N 37°03' W 123°21'1913.2
2014-Nov-03 04:06N 37°22' W 123°21'712.5
2014-Nov-03 03:33N 37°28' W 123°18'1312.6
2014-Nov-03 02:34N 37°34' W 123°04'1313.1
2014-Nov-03 01:34N 37°41' W 122°50'1212.1
2014-Nov-03 00:34N 37°46' W 122°36'1111.3
2014-Nov-02 23:33N 37°48' W 122°22'2 2.4
2014-Nov-02 22:33N 37°46' W 122°21'0 0.1
2014-Nov-02 21:33N 37°46' W 122°21'0 0.1
2014-Nov-02 20:32N 37°46' W 122°21'0 0.0
2014-Nov-02 19:32N 37°46' W 122°21'0 0.0
2014-Nov-02 18:34N 37°46' W 122°21'1010.1
2014-Nov-02 17:33N 37°55' W 122°25'1 0.7
2014-Nov-02 16:32N 37°55' W 122°25'0 0.0
2014-Nov-02 15:32N 37°55' W 122°25'0 0.0
2014-Nov-02 14:32N 37°55' W 122°25'0 0.0
2014-Nov-02 13:31N 37°55' W 122°25'0 0.0
2014-Nov-02 12:31N 37°55' W 122°25'0 0.0
2014-Nov-02 11:33N 37°55' W 122°25'0 0.0
2014-Nov-02 10:33N 37°55' W 122°25'0 0.0
2014-Nov-02 09:32N 37°55' W 122°25'0 0.0
2014-Nov-02 08:29N 37°55' W 122°25'0 0.0
2014-Nov-02 07:31N 37°55' W 122°25'0 0.0
2014-Nov-02 06:31N 37°55' W 122°25'0 0.0
2014-Nov-02 05:31N 37°55' W 122°25'0 0.0
2014-Nov-02 04:30N 37°55' W 122°25'0 0.0
2014-Nov-02 03:33N 37°55' W 122°25'0 0.0
2014-Nov-02 02:32N 37°55' W 122°25'0 0.0
2014-Nov-02 01:32N 37°55' W 122°25'0 0.0
2014-Nov-02 00:31N 37°55' W 122°25'0 0.0
2014-Nov-01 23:31N 37°55' W 122°25'0 0.0
2014-Nov-01 22:31N 37°55' W 122°25'0 0.0
2014-Nov-01 21:30N 37°55' W 122°25'0 0.0
2014-Nov-01 20:30N 37°55' W 122°25'0 0.0
2014-Nov-01 19:29N 37°55' W 122°25'0 0.0
2014-Nov-01 18:29N 37°55' W 122°25'0 0.0
2014-Nov-01 17:31N 37°55' W 122°25'0 0.0
2014-Nov-01 16:31N 37°55' W 122°25'0 0.0
2014-Nov-01 15:31N 37°55' W 122°25'0 0.0
2014-Nov-01 14:33N 37°55' W 122°25'0 0.0
2014-Nov-01 13:33N 37°55' W 122°25'0 0.0
2014-Nov-01 12:32N 37°55' W 122°25'0 0.0
2014-Nov-01 11:32N 37°55' W 122°25'0 0.0
2014-Nov-01 10:31N 37°55' W 122°25'0 0.0
2014-Nov-01 09:31N 37°55' W 122°25'0 0.0
2014-Nov-01 08:31N 37°55' W 122°25'0 0.0
2014-Nov-01 07:30N 37°55' W 122°25'0 0.0
2014-Nov-01 06:33N 37°55' W 122°25'0 0.0
2014-Nov-01 05:32N 37°55' W 122°25'0 0.0
2014-Nov-01 04:32N 37°55' W 122°25'0 0.0
2014-Nov-01 03:31N 37°55' W 122°25'0 0.0
2014-Nov-01 02:31N 37°55' W 122°25'0 0.0
2014-Nov-01 01:31N 37°55' W 122°25'0 0.0
2014-Nov-01 00:33N 37°55' W 122°25'0 0.0
2014-Oct-31 23:33N 37°55' W 122°25'0 0.0
2014-Oct-31 22:32N 37°55' W 122°25'0 0.0
2014-Oct-31 21:32N 37°55' W 122°25'0 0.0
2014-Oct-31 20:31N 37°55' W 122°25'0 0.0
2014-Oct-31 19:31N 37°55' W 122°25'0 0.0
2014-Oct-31 18:31N 37°55' W 122°25'0 0.0
2014-Oct-31 17:33N 37°55' W 122°25'0 0.0
2014-Oct-31 16:33N 37°55' W 122°25'0 0.0
2014-Oct-31 15:32N 37°55' W 122°25'0 0.0
2014-Oct-31 14:32N 37°55' W 122°25'0 0.0
2014-Oct-31 13:31N 37°55' W 122°25'0 0.3
2014-Oct-31 12:33N 37°55' W 122°25'8 8.2
2014-Oct-31 11:33N 37°47' W 122°22'2 1.9
2014-Oct-31 10:31N 37°46' W 122°21'0 0.0
2014-Oct-31 09:33N 37°46' W 122°21'0 0.1
2014-Oct-31 08:33N 37°46' W 122°21'0 0.1
2014-Oct-31 07:32N 37°46' W 122°21'0 0.0
2014-Oct-31 06:32N 37°46' W 122°21'0 0.0
2014-Oct-31 05:31N 37°46' W 122°21'0 0.0
2014-Oct-31 04:31N 37°46' W 122°21'0 0.0
2014-Oct-31 03:31N 37°46' W 122°21'0 0.0
2014-Oct-31 02:33N 37°46' W 122°21'0 0.1
2014-Oct-31 01:33N 37°46' W 122°21'0 0.2
2014-Oct-31 00:32N 37°46' W 122°21'0 0.0
2014-Oct-30 23:32N 37°45' W 122°21'0 0.0
2014-Oct-30 22:32N 37°45' W 122°21'0 0.0
2014-Oct-30 21:31N 37°45' W 122°21'0 0.1
2014-Oct-30 20:31N 37°46' W 122°21'0 0.2
2014-Oct-30 19:31N 37°46' W 122°21'0 0.0
2014-Oct-30 18:30N 37°46' W 122°21'0 0.0
2014-Oct-30 17:33N 37°46' W 122°21'0 0.0
2014-Oct-30 16:32N 37°46' W 122°21'0 0.0
2014-Oct-30 15:32N 37°46' W 122°21'0 0.2
2014-Oct-30 14:31N 37°46' W 122°21'0 0.2
2014-Oct-30 13:31N 37°46' W 122°21'0 0.0
2014-Oct-30 12:28N 37°46' W 122°21'0 0.0
2014-Oct-30 11:33N 37°46' W 122°21'0 0.0
2014-Oct-30 10:33N 37°46' W 122°21'0 0.0
2014-Oct-30 09:32N 37°46' W 122°21'0 0.1
2014-Oct-30 08:32N 37°46' W 122°21'0 0.1
2014-Oct-30 07:31N 37°46' W 122°21'0 0.2
2014-Oct-30 06:28N 37°46' W 122°21'0 0.0
2014-Oct-30 05:31N 37°46' W 122°21'0 0.0
2014-Oct-30 04:33N 37°46' W 122°21'0 0.0
2014-Oct-30 03:21N 37°46' W 122°21'0 0.0
2014-Oct-30 02:32N 37°46' W 122°21'0 0.1
2014-Oct-30 01:32N 37°46' W 122°21'0 0.2
2014-Oct-30 00:31N 37°46' W 122°21'0 0.1
2014-Oct-29 23:31N 37°45' W 122°21'0 0.0
2014-Oct-29 22:31N 37°45' W 122°21'0 0.1
2014-Oct-29 21:33N 37°46' W 122°21'0 0.0
2014-Oct-29 20:33N 37°46' W 122°21'0 0.0
2014-Oct-29 19:32N 37°45' W 122°21'0 0.1
2014-Oct-29 18:32N 37°46' W 122°21'0 0.2
2014-Oct-29 17:28N 37°46' W 122°21'0 0.0
2014-Oct-29 16:31N 37°46' W 122°21'0 0.0
2014-Oct-29 15:33N 37°46' W 122°21'0 0.0
2014-Oct-29 14:33N 37°46' W 122°21'0 0.1
2014-Oct-29 13:30N 37°46' W 122°21'0 0.2
2014-Oct-29 12:32N 37°46' W 122°21'0 0.0
2014-Oct-29 11:32N 37°46' W 122°21'0 0.0
2014-Oct-29 10:31N 37°46' W 122°21'0 0.0
2014-Oct-29 09:31N 37°46' W 122°21'0 0.1
2014-Oct-29 08:34N 37°46' W 122°21'0 0.0
2014-Oct-29 07:33N 37°46' W 122°21'0 0.1
2014-Oct-29 06:33N 37°46' W 122°21'0 0.2
2014-Oct-29 05:29N 37°46' W 122°21'0 0.0
2014-Oct-29 04:32N 37°46' W 122°21'0 0.0
2014-Oct-29 03:31N 37°46' W 122°21'0 0.0
2014-Oct-29 02:31N 37°46' W 122°21'0 0.0
2014-Oct-29 01:33N 37°46' W 122°21'0 0.0
2014-Oct-29 00:33N 37°46' W 122°21'0 0.0
2014-Oct-28 23:33N 37°46' W 122°21'0 0.2
2014-Oct-28 22:32N 37°46' W 122°21'0 0.0
2014-Oct-28 21:32N 37°46' W 122°21'0 0.0
2014-Oct-28 20:31N 37°46' W 122°21'0 0.0
2014-Oct-28 19:31N 37°46' W 122°21'0 0.0
2014-Oct-28 18:33N 37°45' W 122°21'0 0.0
2014-Oct-28 17:33N 37°46' W 122°21'0 0.2
2014-Oct-28 16:33N 37°46' W 122°21'0 0.0
2014-Oct-28 15:29N 37°46' W 122°21'0 0.0
2014-Oct-28 14:32N 37°46' W 122°21'0 0.0
2014-Oct-28 13:31N 37°46' W 122°21'3 2.9
2014-Oct-28 12:33N 37°48' W 122°23'10 9.7
2014-Oct-28 11:34N 37°47' W 122°35'9 9.2
2014-Oct-28 10:33N 37°42' W 122°45'1110.9
2014-Oct-28 09:34N 37°36' W 122°56'1312.5
2014-Oct-28 08:33N 37°29' W 123°09'1312.4
2014-Oct-28 07:31N 37°22' W 123°23'1010.3
2014-Oct-28 06:33N 37°14' W 123°30'1110.6
2014-Oct-28 05:33N 37°03' W 123°29'1111.0
2014-Oct-28 04:33N 36°52' W 123°28'1111.5
2014-Oct-28 03:33N 36°41' W 123°26'2512.1
2014-Oct-28 01:27N 36°15' W 123°23'1111.9
2014-Oct-28 00:33N 36°05' W 123°22'1211.7
2014-Oct-27 23:33N 35°53' W 123°20'1211.4
2014-Oct-27 22:33N 35°42' W 123°18'1111.5
2014-Oct-27 21:33N 35°31' W 123°13'1211.7
2014-Oct-27 20:33N 35°21' W 123°07'1111.4
2014-Oct-27 19:33N 35°10' W 123°01'1111.1
2014-Oct-27 18:33N 35°00' W 122°55'1211.2
2014-Oct-27 17:29N 34°49' W 122°49'7510.5
2014-Oct-27 10:23N 33°42' W 122°09'9 9.7
2014-Oct-27 09:28N 33°34' W 122°05'9 9.4
2014-Oct-27 08:31N 33°26' W 121°60'18110.1
2014-Oct-26 14:32N 30°43' W 120°27'8011.5
2014-Oct-26 07:32N 29°31' W 119°46'  

Dump ship's entire track history